This is the latest recevied weather packets stored in our database for station/object W1HVD. If no packets are shown the sender has not sent any weather packets the latest 1 day(s).
| Time | Temp. | Humidity | Pressure | Rain* | Wind** | Luminosity | Snow |
|---|---|---|---|---|---|---|---|
| 1778100284 | 15° C | 91% | 1008.3 hPa | 0 mm | - | 38 W/m² | - |
| 1778099981 | 15° C | 91% | 1008.3 hPa | 0 mm | - | 42 W/m² | - |
| 1778097253 | 15° C | 88% | 1008.8 hPa | 1.27 mm | - | 63 W/m² | - |
| 1778094524 | 16.67° C | 78% | 1008.9 hPa | 0 mm | - | 113 W/m² | - |
| 1778094220 | 16.67° C | 77% | 1009.1 hPa | 0 mm | - | 110 W/m² | - |
| 1778092706 | 17.78° C | 76% | 1009.3 hPa | 0 mm | - | 119 W/m² | - |
| 1778091795 | 17.22° C | 76% | 1009.4 hPa | 0 mm | - | 158 W/m² | - |
| 1778089064 | 18.89° C | 71% | 1010 hPa | 0 mm | - | 336 W/m² | - |
| 1778088457 | 18.89° C | 71% | 1010.1 hPa | 0 mm | - | 299 W/m² | - |
| 1778086641 | 18.89° C | 73% | 1010.3 hPa | 0 mm | - | 339 W/m² | - |
| 1778086035 | 18.89° C | 72% | 1010.4 hPa | 0 mm | - | 539 W/m² | - |
| 1778085732 | 18.89° C | 71% | 1010.5 hPa | 0 mm | - | 439 W/m² | - |
| 1778085124 | 18.89° C | 71% | 1010.7 hPa | 0 mm | - | 374 W/m² | - |
| 1778083609 | 19.44° C | 70% | 1010.7 hPa | 0 mm | - | 379 W/m² | - |
| 1778083004 | 20° C | 69% | 1011 hPa | 0 mm | - | 416 W/m² | - |
| 1778080957 | 18.89° C | 70% | 1011.3 hPa | 0 mm | - | 688 W/m² | - |
| 1778080656 | 18.89° C | 71% | 1011.2 hPa | 0 mm | - | 483 W/m² | - |
| 1778080352 | 18.89° C | 72% | 1011.1 hPa | 0 mm | - | 567 W/m² | - |
| 1778079746 | 18.33° C | 72% | 1011.4 hPa | 0 mm | - | 335 W/m² | - |
| 1778079443 | 18.33° C | 72% | 1011.1 hPa | 0 mm | - | 338 W/m² | - |
| 1778076418 | 18.33° C | 73% | 1011 hPa | 0 mm | - | 380 W/m² | - |
| 1778075508 | 17.78° C | 73% | 1011.3 hPa | 0 mm | - | 556 W/m² | - |
| 1778073992 | 17.78° C | 76% | 1011.6 hPa | 0 mm | - | 502 W/m² | - |
| 1778073082 | 17.22° C | 77% | 1011.6 hPa | 0 mm | - | 289 W/m² | - |
| 1778072477 | 17.22° C | 78% | 1011.4 hPa | 0 mm | - | 387 W/m² | - |
* Rain latest hour (hover to see other rain measurements)
** Current wind speed in m/s (hover to see current wind gust speed)